Time;durP1;ratioP1;P1;durP2;ratioP2;P2;SDS_P1;SDS_P2;PMS_P1;PMS_P2;Temp;Humidity;BMP_temperature;BMP_pressure;BME280_temperature;BME280_humidity;BME280_pressure;Samples;Min_cycle;Max_cycle;Signal;HPM_P1;HPM_P2
2022/12/09 00:02:04;;;;;;;;;;;;;;;;;;5082588;28;20077;-61
2022/12/09 00:04:29;;;;;;;;;;;;;;;;;;5080088;28;19928;-62
2022/12/09 00:06:54;;;;;;;;;;;;;;;;;;5082456;28;20351;-61
2022/12/09 00:09:19;;;;;;;;;;;;;;;;;;5080612;28;19921;-62
2022/12/09 00:11:45;;;;;;;;;;;;;;;;;;5081591;28;20296;-62
2022/12/09 00:14:11;;;;;;;;;;;;;;;;;;5088266;28;20006;-61
2022/12/09 00:16:36;;;;;;;;;;;;;;;;;;5080094;28;20283;-61
2022/12/09 00:19:02;;;;;;;;;;;;;;;;;;5082210;28;19928;-62
2022/12/09 00:21:31;;;;;;;;;;;;;;;;;;5087320;28;19927;-60
2022/12/09 00:23:58;;;;;;;;;;;;;;;;;;5086820;28;20313;-60
2022/12/09 00:26:23;;;;;;;;;;;;;;;;;;5085079;28;19935;-60
2022/12/09 00:28:49;;;;;;;;;;;;;;;;;;5081769;28;20298;-61
2022/12/09 00:31:16;;;;;;;;;;;;;;;;;;5083653;28;20030;-62
2022/12/09 00:33:42;;;;;;;;;;;;;;;;;;5084749;28;19928;-61
2022/12/09 00:36:08;;;;;;;;;;;;;;;;;;5083132;28;19940;-61
2022/12/09 00:38:34;;;;;;;;;;;;;;;;;;5083433;28;19932;-61
2022/12/09 00:41:00;;;;;;;;;;;;;;;;;;5088120;28;19978;-61
2022/12/09 00:43:25;;;;;;;;;;;;;;;;;;5086596;28;19986;-61
2022/12/09 00:45:50;;;;;;;;;;;;;;;;;;5084465;28;19999;-61
2022/12/09 00:48:15;;;;;;;;;;;;;;;;;;5085772;28;20378;-61
2022/12/09 00:50:41;;;;;;;;;;;;;;;;;;5086306;28;20014;-61
2022/12/09 00:53:07;;;;;;;;;;;;;;;;;;5083673;28;20394;-62
2022/12/09 00:55:32;;;;;;;;;;;;;;;;;;5081736;28;19967;-62
2022/12/09 00:57:57;;;;;;;;;;;;;;;;;;5079299;28;20240;-61
2022/12/09 01:00:22;;;;;;;;;;;;;;;;;;5084853;28;19928;-61
2022/12/09 01:02:48;;;;;;;;;;;;;;;;;;5086491;28;19936;-61
2022/12/09 01:05:13;;;;;;;;;;;;;;;;;;5082536;28;19928;-61
2022/12/09 01:07:38;;;;;;;;;;;;;;;;;;5085524;28;19924;-62
2022/12/09 01:10:04;;;;;;;;;;;;;;;;;;5080968;28;19932;-62
2022/12/09 01:12:29;;;;;;;;;;;;;;;;;;5084799;28;20581;-62
2022/12/09 01:14:55;;;;;;;;;;;;;;;;;;5086660;28;19927;-64
2022/12/09 01:17:20;;;;;;;;;;;;;;;;;;5088394;28;20015;-62
2022/12/09 01:19:45;;;;;;;;;;;;;;;;;;5083460;28;19966;-62
2022/12/09 01:22:10;;;;;;;;;;;;;;;;;;5084547;28;19931;-62
2022/12/09 01:24:36;;;;;;;;;;;;;;;;;;5086614;28;19924;-62
2022/12/09 01:27:01;;;;;;;;;;;;;;;;;;5088173;28;19924;-62
2022/12/09 01:29:26;;;;;;;;;;;;;;;;;;5086686;28;20037;-61
2022/12/09 01:31:52;;;;;;;;;;;;;;;;;;5086138;28;19924;-61
2022/12/09 01:34:18;;;;;;;;;;;;;;;;;;5068047;28;19935;-61
2022/12/09 01:36:43;;;;;;;;;;;;;;;;;;5084703;28;19924;-61
2022/12/09 01:39:09;;;;;;;;;;;;;;;;;;5087806;28;19924;-61
2022/12/09 01:41:34;;;;;;;;;;;;;;;;;;5084996;28;20003;-61
2022/12/09 01:44:35;;;;;;;;;;;;;;;;;;5086380;28;19928;-61
2022/12/09 01:47:01;;;;;;;;;;;;;;;;;;5022290;28;20487;-61
2022/12/09 01:49:28;;;;;;;;;;;;;;;;;;5070995;28;19965;-61
2022/12/09 01:51:57;;;;;;;;;;;;;;;;;;5084883;28;19936;-62
2022/12/09 01:54:22;;;;;;;;;;;;;;;;;;5083885;28;19928;-61
2022/12/09 01:56:47;;;;;;;;;;;;;;;;;;5085453;28;20000;-62
2022/12/09 01:59:13;;;;;;;;;;;;;;;;;;5084351;28;19932;-62
2022/12/09 02:01:39;;;;;;;;;;;;;;;;;;5083002;28;20523;-61
2022/12/09 02:04:05;;;;;;;;;;;;;;;;;;5087593;28;20396;-62
2022/12/09 02:06:30;;;;;;;;;;;;;;;;;;5087252;28;19935;-65
2022/12/09 02:08:56;;;;;;;;;;;;;;;;;;5081561;28;20294;-65
2022/12/09 02:11:40;;;;;;;;;;;;;;;;;;5082891;28;19939;-63
2022/12/09 02:14:14;;;;;;;;;;;;;;;;;;5085811;28;19932;-61
2022/12/09 02:16:44;;;;;;;;;;;;;;;;;;5080102;28;19928;-65
2022/12/09 02:19:33;;;;;;;;;;;;;;;;;;5080934;28;19928;-66
2022/12/09 02:21:59;;;;;;;;;;;;;;;;;;5055787;28;19932;-60
2022/12/09 02:24:27;;;;;;;;;;;;;;;;;;5082017;28;20420;-61
2022/12/09 02:27:10;;;;;;;;;;;;;;;;;;5075336;28;20001;-61
2022/12/09 02:29:42;;;;;;;;;;;;;;;;;;5083241;28;20615;-61
2022/12/09 02:32:07;;;;;;;;;;;;;;;;;;5074596;28;20070;-61
2022/12/09 02:34:35;;;;;;;;;;;;;;;;;;5073241;28;19932;-61
2022/12/09 02:37:17;;;;;;;;;;;;;;;;;;5076919;28;20303;-61
2022/12/09 02:39:50;;;;;;;;;;;;;;;;;;5078933;28;20232;-61
2022/12/09 02:42:17;;;;;;;;;;;;;;;;;;5078104;28;20064;-61
2022/12/09 02:44:44;;;;;;;;;;;;;;;;;;5084753;28;19924;-61
2022/12/09 02:47:12;;;;;;;;;;;;;;;;;;5080385;28;19942;-61
2022/12/09 02:49:39;;;;;;;;;;;;;;;;;;5092705;28;20047;-61
2022/12/09 02:52:05;;;;;;;;;;;;;;;;;;5080639;28;20074;-61
2022/12/09 02:54:31;;;;;;;;;;;;;;;;;;5078235;28;20438;-61
2022/12/09 02:56:59;;;;;;;;;;;;;;;;;;5075756;28;19935;-61
2022/12/09 02:59:24;;;;;;;;;;;;;;;;;;5081955;28;19935;-60
2022/12/09 03:02:13;;;;;;;;;;;;;;;;;;5078110;28;19954;-62
2022/12/09 03:04:41;;;;;;;;;;;;;;;;;;5071606;28;19932;-61
2022/12/09 03:07:13;;;;;;;;;;;;;;;;;;5081013;28;20069;-61
2022/12/09 03:09:41;;;;;;;;;;;;;;;;;;5078939;28;20004;-61
2022/12/09 03:12:09;;;;;;;;;;;;;;;;;;5080672;28;19969;-60
2022/12/09 03:14:38;;;;;;;;;;;;;;;;;;5077850;28;19924;-61
2022/12/09 03:17:22;;;;;;;;;;;;;;;;;;5078238;28;19932;-60
2022/12/09 03:19:51;;;;;;;;;;;;;;;;;;5080644;28;20033;-61
2022/12/09 03:22:18;;;;;;;;;;;;;;;;;;5080854;28;19985;-61
2022/12/09 03:24:44;;;;;;;;;;;;;;;;;;5076044;28;19929;-60
2022/12/09 03:27:12;;;;;;;;;;;;;;;;;;5082579;28;20800;-62
2022/12/09 03:29:40;;;;;;;;;;;;;;;;;;5081281;28;19936;-61
2022/12/09 03:32:07;;;;;;;;;;;;;;;;;;5074474;28;20016;-61
2022/12/09 03:34:35;;;;;;;;;;;;;;;;;;5081423;28;20124;-61
2022/12/09 03:37:01;;;;;;;;;;;;;;;;;;5079063;28;19924;-61
2022/12/09 03:39:28;;;;;;;;;;;;;;;;;;5080414;28;20327;-63
2022/12/09 03:41:58;;;;;;;;;;;;;;;;;;5075733;28;20066;-61
2022/12/09 03:44:49;;;;;;;;;;;;;;;;;;5085248;28;20393;-60
2022/12/09 03:47:15;;;;;;;;;;;;;;;;;;5075398;28;19928;-61
2022/12/09 03:49:40;;;;;;;;;;;;;;;;;;5083539;28;19927;-61
2022/12/09 03:52:11;;;;;;;;;;;;;;;;;;5082010;28;19931;-61
2022/12/09 03:54:44;;;;;;;;;;;;;;;;;;5082663;28;20375;-61
2022/12/09 03:57:15;;;;;;;;;;;;;;;;;;5083167;28;19931;-60
2022/12/09 03:59:42;;;;;;;;;;;;;;;;;;5077029;28;20023;-61
2022/12/09 04:02:07;;;;;;;;;;;;;;;;;;5080942;28;19985;-61
2022/12/09 04:04:33;;;;;;;;;;;;;;;;;;5083223;28;19947;-61
2022/12/09 04:06:59;;;;;;;;;;;;;;;;;;5085815;28;20294;-60
2022/12/09 04:09:24;;;;;;;;;;;;;;;;;;5082547;28;19993;-61
2022/12/09 04:11:49;;;;;;;;;;;;;;;;;;5083863;28;19946;-61
2022/12/09 04:14:15;;;;;;;;;;;;;;;;;;5077343;28;20453;-61
2022/12/09 04:16:40;;;;;;;;;;;;;;;;;;5074358;28;19931;-61
2022/12/09 04:19:06;;;;;;;;;;;;;;;;;;5083639;28;19928;-62
2022/12/09 04:21:31;;;;;;;;;;;;;;;;;;5080415;28;19935;-61
2022/12/09 04:23:56;;;;;;;;;;;;;;;;;;5077672;28;19928;-62
2022/12/09 04:26:22;;;;;;;;;;;;;;;;;;5080511;28;20400;-61
2022/12/09 04:28:48;;;;;;;;;;;;;;;;;;5081946;28;19935;-61
2022/12/09 04:31:14;;;;;;;;;;;;;;;;;;5074218;28;19932;-61
2022/12/09 04:33:39;;;;;;;;;;;;;;;;;;5082155;28;19985;-61
2022/12/09 04:36:09;;;;;;;;;;;;;;;;;;5082526;28;19928;-61
2022/12/09 04:38:34;;;;;;;;;;;;;;;;;;5082526;28;19928;-61
2022/12/09 04:41:00;;;;;;;;;;;;;;;;;;5075455;28;20442;-61
2022/12/09 04:43:25;;;;;;;;;;;;;;;;;;5080115;28;19928;-60
2022/12/09 04:45:50;;;;;;;;;;;;;;;;;;5081242;28;19934;-61
2022/12/09 04:48:15;;;;;;;;;;;;;;;;;;5081922;28;20344;-62
2022/12/09 04:50:41;;;;;;;;;;;;;;;;;;5080950;28;19924;-68
2022/12/09 04:53:06;;;;;;;;;;;;;;;;;;5075259;28;19937;-65
2022/12/09 04:55:31;;;;;;;;;;;;;;;;;;5079212;28;19932;-62
2022/12/09 04:57:57;;;;;;;;;;;;;;;;;;5079304;28;20649;-61
2022/12/09 05:00:22;;;;;;;;;;;;;;;;;;5079055;28;20256;-63
2022/12/09 05:02:47;;;;;;;;;;;;;;;;;;5080254;28;20031;-61
2022/12/09 05:05:13;;;;;;;;;;;;;;;;;;5082990;28;19928;-61
2022/12/09 05:07:38;;;;;;;;;;;;;;;;;;5082724;28;20035;-61
2022/12/09 05:10:04;;;;;;;;;;;;;;;;;;5079956;28;19928;-60
2022/12/09 05:12:31;;;;;;;;;;;;;;;;;;5078246;28;20571;-60
2022/12/09 05:14:57;;;;;;;;;;;;;;;;;;5081683;28;19920;-60
2022/12/09 05:17:23;;;;;;;;;;;;;;;;;;5083537;28;19978;-60
2022/12/09 05:19:48;;;;;;;;;;;;;;;;;;5080465;28;19928;-60
2022/12/09 05:22:17;;;;;;;;;;;;;;;;;;5083095;28;20384;-60
2022/12/09 05:24:43;;;;;;;;;;;;;;;;;;5081287;28;20085;-58
2022/12/09 05:27:08;;;;;;;;;;;;;;;;;;5083710;28;20501;-60
2022/12/09 05:29:34;;;;;;;;;;;;;;;;;;5079963;28;19935;-60
2022/12/09 05:31:59;;;;;;;;;;;;;;;;;;5083006;28;19936;-58
2022/12/09 05:34:24;;;;;;;;;;;;;;;;;;5085525;28;19938;-58
2022/12/09 05:36:50;;;;;;;;;;;;;;;;;;5084348;28;19924;-59
2022/12/09 05:39:16;;;;;;;;;;;;;;;;;;5081382;28;19932;-58
2022/12/09 05:41:42;;;;;;;;;;;;;;;;;;5080625;28;19934;-58
2022/12/09 05:44:08;;;;;;;;;;;;;;;;;;5084777;28;19927;-59
2022/12/09 05:46:33;;;;;;;;;;;;;;;;;;5082920;28;19932;-58
2022/12/09 05:48:59;;;;;;;;;;;;;;;;;;5084290;28;19947;-58
2022/12/09 05:51:25;;;;;;;;;;;;;;;;;;5079614;28;19924;-59
2022/12/09 05:53:51;;;;;;;;;;;;;;;;;;5086219;28;19928;-58
2022/12/09 05:56:17;;;;;;;;;;;;;;;;;;5085102;28;20410;-58
2022/12/09 05:58:43;;;;;;;;;;;;;;;;;;5079527;28;19939;-59
2022/12/09 06:01:08;;;;;;;;;;;;;;;;;;5080003;28;19932;-59
2022/12/09 06:03:34;;;;;;;;;;;;;;;;;;5085627;28;19947;-59
2022/12/09 06:06:06;;;;;;;;;;;;;;;;;;5084621;28;20023;-60
2022/12/09 06:08:32;;;;;;;;;;;;;;;;;;5083581;28;21019;-58
2022/12/09 06:10:57;;;;;;;;;;;;;;;;;;5082278;28;19924;-60
2022/12/09 06:13:22;;;;;;;;;;;;;;;;;;5078778;28;19935;-60
2022/12/09 06:15:47;;;;;;;;;;;;;;;;;;5080945;28;19928;-60
2022/12/09 06:18:13;;;;;;;;;;;;;;;;;;5083897;28;19924;-59
2022/12/09 06:20:40;;;;;;;;;;;;;;;;;;5083401;28;20332;-60
2022/12/09 06:23:05;;;;;;;;;;;;;;;;;;5084834;28;20283;-60
2022/12/09 06:25:30;;;;;;;;;;;;;;;;;;5083371;28;19931;-60
2022/12/09 06:27:55;;;;;;;;;;;;;;;;;;5083305;28;20552;-58
2022/12/09 06:30:21;;;;;;;;;;;;;;;;;;5080055;28;19992;-60
2022/12/09 06:32:46;;;;;;;;;;;;;;;;;;5063287;28;19928;-59
2022/12/09 06:35:11;;;;;;;;;;;;;;;;;;5057215;28;22551;-58
2022/12/09 06:37:37;;;;;;;;;;;;;;;;;;5076623;28;19925;-58
2022/12/09 06:40:02;;;;;;;;;;;;;;;;;;5081272;28;20020;-58
2022/12/09 06:42:27;;;;;;;;;;;;;;;;;;5084290;28;19993;-59
2022/12/09 06:44:53;;;;;;;;;;;;;;;;;;5079924;28;19934;-62
2022/12/09 06:47:18;;;;;;;;;;;;;;;;;;5078361;28;19932;-58
2022/12/09 06:49:43;;;;;;;;;;;;;;;;;;5080228;28;19932;-57
2022/12/09 06:52:09;;;;;;;;;;;;;;;;;;5078662;28;20318;-59
2022/12/09 06:54:34;;;;;;;;;;;;;;;;;;5082090;28;20045;-57
2022/12/09 06:56:59;;;;;;;;;;;;;;;;;;5087933;28;19924;-58
2022/12/09 06:59:24;;;;;;;;;;;;;;;;;;5082442;28;20448;-58
2022/12/09 07:01:50;;;;;;;;;;;;;;;;;;5081296;28;20429;-58
2022/12/09 07:04:15;;;;;;;;;;;;;;;;;;5087479;28;19931;-58
2022/12/09 07:06:42;;;;;;;;;;;;;;;;;;5086284;28;20011;-58
2022/12/09 07:09:08;;;;;;;;;;;;;;;;;;5078534;28;19926;-57
2022/12/09 07:11:34;;;;;;;;;;;;;;;;;;5079648;28;19955;-56
2022/12/09 07:13:59;;;;;;;;;;;;;;;;;;5076451;28;19989;-57
2022/12/09 07:16:26;;;;;;;;;;;;;;;;;;5067613;28;19930;-58
2022/12/09 07:18:52;;;;;;;;;;;;;;;;;;5080508;28;20001;-57
2022/12/09 07:21:18;;;;;;;;;;;;;;;;;;5081214;28;19924;-55
2022/12/09 07:23:44;;;;;;;;;;;;;;;;;;5082682;28;20322;-56
2022/12/09 07:26:09;;;;;;;;;;;;;;;;;;5079558;28;19924;-56
2022/12/09 07:28:35;;;;;;;;;;;;;;;;;;5080397;28;19925;-57
2022/12/09 07:31:00;;;;;;;;;;;;;;;;;;5081032;28;19977;-57
2022/12/09 07:33:26;;;;;;;;;;;;;;;;;;5077536;28;19924;-55
2022/12/09 07:35:55;;;;;;;;;;;;;;;;;;5082444;28;19971;-56
2022/12/09 07:38:21;;;;;;;;;;;;;;;;;;5080391;28;19928;-56
2022/12/09 07:40:47;;;;;;;;;;;;;;;;;;5079343;28;19932;-57
2022/12/09 07:43:12;;;;;;;;;;;;;;;;;;5082822;28;19985;-55
2022/12/09 07:45:37;;;;;;;;;;;;;;;;;;5082207;28;19969;-56
2022/12/09 07:48:03;;;;;;;;;;;;;;;;;;5085030;28;20932;-54
2022/12/09 07:50:28;;;;;;;;;;;;;;;;;;5084697;28;19924;-58
2022/12/09 07:52:54;;;;;;;;;;;;;;;;;;5085826;28;19954;-55
2022/12/09 07:55:19;;;;;;;;;;;;;;;;;;5083539;28;19924;-53
2022/12/09 07:57:44;;;;;;;;;;;;;;;;;;5084290;28;20023;-54
2022/12/09 08:00:10;;;;;;;;;;;;;;;;;;5078217;28;19920;-55
2022/12/09 08:02:35;;;;;;;;;;;;;;;;;;5080342;28;19928;-54
2022/12/09 08:05:01;;;;;;;;;;;;;;;;;;5084918;28;19928;-57
2022/12/09 08:07:26;;;;;;;;;;;;;;;;;;5084048;28;20015;-56
2022/12/09 08:09:54;;;;;;;;;;;;;;;;;;5083088;28;19931;-56
2022/12/09 08:12:20;;;;;;;;;;;;;;;;;;5080832;28;19936;-60
2022/12/09 08:14:45;;;;;;;;;;;;;;;;;;5080533;28;19997;-57
2022/12/09 08:17:10;;;;;;;;;;;;;;;;;;5081362;28;19970;-58
2022/12/09 08:19:36;;;;;;;;;;;;;;;;;;5083630;28;19932;-58
2022/12/09 08:22:01;;;;;;;;;;;;;;;;;;5078586;28;19932;-56
2022/12/09 08:24:26;;;;;;;;;;;;;;;;;;5079688;28;20390;-56
2022/12/09 08:26:52;;;;;;;;;;;;;;;;;;5082969;28;20397;-56
2022/12/09 08:29:17;;;;;;;;;;;;;;;;;;5079263;28;19935;-59
2022/12/09 08:31:43;;;;;;;;;;;;;;;;;;5075194;28;19934;-57
2022/12/09 08:34:08;;;;;;;;;;;;;;;;;;5081386;28;20597;-54
2022/12/09 08:36:35;;;;;;;;;;;;;;;;;;5081935;28;19981;-56
2022/12/09 08:39:00;;;;;;;;;;;;;;;;;;5084001;28;19924;-58
2022/12/09 08:41:34;;;;;;;;;;;;;;;;;;5084996;28;19935;-62
2022/12/09 08:44:04;;;;;;;;;;;;;;;;;;5083654;28;19981;-56
2022/12/09 08:46:30;;;;;;;;;;;;;;;;;;5083409;28;19928;-56
2022/12/09 08:48:55;;;;;;;;;;;;;;;;;;5074783;28;19928;-57
2022/12/09 08:51:21;;;;;;;;;;;;;;;;;;5059225;28;19929;-56
2022/12/09 08:53:46;;;;;;;;;;;;;;;;;;5076481;28;20366;-57
2022/12/09 08:56:12;;;;;;;;;;;;;;;;;;5079564;28;19958;-57
2022/12/09 08:58:37;;;;;;;;;;;;;;;;;;5077969;28;19942;-54
2022/12/09 09:01:03;;;;;;;;;;;;;;;;;;5076247;28;20341;-57
2022/12/09 09:03:29;;;;;;;;;;;;;;;;;;5077062;28;19935;-57
2022/12/09 09:05:59;;;;;;;;;;;;;;;;;;5077673;28;19928;-69
2022/12/09 09:08:24;;;;;;;;;;;;;;;;;;5085572;28;19932;-69
2022/12/09 09:10:50;;;;;;;;;;;;;;;;;;5082886;28;20306;-68
2022/12/09 09:13:15;;;;;;;;;;;;;;;;;;5078057;28;19928;-69
2022/12/09 09:15:40;;;;;;;;;;;;;;;;;;5083169;28;19928;-69
2022/12/09 09:18:05;;;;;;;;;;;;;;;;;;5087863;28;19920;-69
2022/12/09 09:20:31;;;;;;;;;;;;;;;;;;5084583;28;20657;-69
2022/12/09 09:22:56;;;;;;;;;;;;;;;;;;5083879;28;19928;-69
2022/12/09 09:25:21;;;;;;;;;;;;;;;;;;5080526;28;20023;-69
2022/12/09 09:27:47;;;;;;;;;;;;;;;;;;5077460;28;19932;-69
2022/12/09 09:30:12;;;;;;;;;;;;;;;;;;5075702;28;19928;-68
2022/12/09 09:32:37;;;;;;;;;;;;;;;;;;5078009;28;20687;-69
2022/12/09 09:35:03;;;;;;;;;;;;;;;;;;5075626;28;20408;-68
2022/12/09 09:37:29;;;;;;;;;;;;;;;;;;5068539;28;20203;-69
2022/12/09 09:39:54;;;;;;;;;;;;;;;;;;5071981;28;19979;-69
2022/12/09 09:42:22;;;;;;;;;;;;;;;;;;5081467;28;20762;-69
2022/12/09 09:44:49;;;;;;;;;;;;;;;;;;5085435;28;20052;-69
2022/12/09 09:47:18;;;;;;;;;;;;;;;;;;5086279;28;19928;-69
2022/12/09 09:50:22;;;;;;;;;;;;;;;;;;5086583;28;19939;-69
2022/12/09 09:52:48;;;;;;;;;;;;;;;;;;5039285;28;19980;-69
2022/12/09 09:55:15;;;;;;;;;;;;;;;;;;5043561;28;20022;-69
2022/12/09 09:57:52;;;;;;;;;;;;;;;;;;5066876;28;19931;-69
2022/12/09 10:00:26;;;;;;;;;;;;;;;;;;5079728;28;19938;-68
2022/12/09 10:02:59;;;;;;;;;;;;;;;;;;5081692;28;20018;-69
2022/12/09 10:05:29;;;;;;;;;;;;;;;;;;5082027;28;19924;-68
2022/12/09 10:08:12;;;;;;;;;;;;;;;;;;5081737;28;19981;-67
2022/12/09 10:10:53;;;;;;;;;;;;;;;;;;5082283;28;20382;-68
2022/12/09 10:13:37;;;;;;;;;;;;;;;;;;5074597;28;20297;-68
2022/12/09 10:16:08;;;;;;;;;;;;;;;;;;5078796;28;19935;-69
2022/12/09 10:18:53;;;;;;;;;;;;;;;;;;5076454;28;19959;-68
2022/12/09 10:21:19;;;;;;;;;;;;;;;;;;5075712;28;20400;-68
2022/12/09 10:23:45;;;;;;;;;;;;;;;;;;5071719;28;19920;-66
2022/12/09 10:26:16;;;;;;;;;;;;;;;;;;5080532;28;20444;-70
2022/12/09 10:28:43;;;;;;;;;;;;;;;;;;5081874;28;19924;-68
2022/12/09 10:31:11;;;;;;;;;;;;;;;;;;5075747;28;19932;-68
2022/12/09 10:33:38;;;;;;;;;;;;;;;;;;5077245;28;19935;-68
2022/12/09 10:36:04;;;;;;;;;;;;;;;;;;5078403;28;19920;-67
2022/12/09 10:38:30;;;;;;;;;;;;;;;;;;5080876;28;19928;-68
2022/12/09 10:40:59;;;;;;;;;;;;;;;;;;5080734;28;19924;-69
2022/12/09 10:43:37;;;;;;;;;;;;;;;;;;5075071;28;19938;-66
2022/12/09 10:46:05;;;;;;;;;;;;;;;;;;5078578;28;19932;-67
2022/12/09 10:48:36;;;;;;;;;;;;;;;;;;5077686;28;19928;-68
2022/12/09 10:51:09;;;;;;;;;;;;;;;;;;5079213;28;19928;-67
2022/12/09 10:53:36;;;;;;;;;;;;;;;;;;5072665;28;24589;-67
2022/12/09 10:56:02;;;;;;;;;;;;;;;;;;5075756;28;19939;-72
2022/12/09 10:58:29;;;;;;;;;;;;;;;;;;5085543;28;20294;-72
2022/12/09 11:01:02;;;;;;;;;;;;;;;;;;5083826;28;19985;-71
2022/12/09 11:03:31;;;;;;;;;;;;;;;;;;5085168;28;20575;-69
2022/12/09 11:05:57;;;;;;;;;;;;;;;;;;5082082;28;20361;-70
2022/12/09 11:08:23;;;;;;;;;;;;;;;;;;5067785;28;20922;-70
2022/12/09 11:10:49;;;;;;;;;;;;;;;;;;5071089;28;19984;-72
2022/12/09 11:13:16;;;;;;;;;;;;;;;;;;5069679;28;20278;-70
2022/12/09 11:15:44;;;;;;;;;;;;;;;;;;5074991;28;19947;-69
2022/12/09 11:18:20;;;;;;;;;;;;;;;;;;5079129;28;19963;-69
2022/12/09 11:20:56;;;;;;;;;;;;;;;;;;5075416;28;20386;-71
2022/12/09 11:23:21;;;;;;;;;;;;;;;;;;5074956;28;19932;-69
2022/12/09 11:25:57;;;;;;;;;;;;;;;;;;5072855;28;20298;-69
2022/12/09 11:28:30;;;;;;;;;;;;;;;;;;5071737;28;20018;-70
2022/12/09 11:30:59;;;;;;;;;;;;;;;;;;5071283;28;20390;-72
2022/12/09 11:33:29;;;;;;;;;;;;;;;;;;5075736;28;19927;-68
2022/12/09 11:36:16;;;;;;;;;;;;;;;;;;5081834;28;20064;-65
2022/12/09 11:38:43;;;;;;;;;;;;;;;;;;5070628;28;20515;-68
2022/12/09 11:41:08;;;;;;;;;;;;;;;;;;5078554;28;20344;-68
2022/12/09 11:43:48;;;;;;;;;;;;;;;;;;5084883;28;20026;-69
2022/12/09 11:46:20;;;;;;;;;;;;;;;;;;5086757;28;19939;-69
2022/12/09 11:49:11;;;;;;;;;;;;;;;;;;5082037;28;20294;-69
2022/12/09 11:51:39;;;;;;;;;;;;;;;;;;5084512;28;19935;-69
2022/12/09 11:54:14;;;;;;;;;;;;;;;;;;5083519;28;19958;-69
2022/12/09 11:56:48;;;;;;;;;;;;;;;;;;5084929;28;20341;-70
2022/12/09 11:59:22;;;;;;;;;;;;;;;;;;5082351;28;19943;-69
2022/12/09 12:01:51;;;;;;;;;;;;;;;;;;5077935;28;19928;-69
2022/12/09 12:04:38;;;;;;;;;;;;;;;;;;5078636;28;19932;-69
2022/12/09 12:07:13;;;;;;;;;;;;;;;;;;5078276;28;19936;-63
2022/12/09 12:09:38;;;;;;;;;;;;;;;;;;5079156;28;20014;-64
2022/12/09 12:12:08;;;;;;;;;;;;;;;;;;5077297;28;19976;-62
2022/12/09 12:14:35;;;;;;;;;;;;;;;;;;5081859;28;20631;-63
2022/12/09 12:17:17;;;;;;;;;;;;;;;;;;5075195;28;20009;-63
2022/12/09 12:19:48;;;;;;;;;;;;;;;;;;5083428;28;19977;-65
2022/12/09 12:22:19;;;;;;;;;;;;;;;;;;5076689;28;19932;-61
2022/12/09 12:24:48;;;;;;;;;;;;;;;;;;5078051;28;19933;-64
2022/12/09 12:27:21;;;;;;;;;;;;;;;;;;5075432;28;19924;-61
2022/12/09 12:29:49;;;;;;;;;;;;;;;;;;5078218;28;19970;-60
2022/12/09 12:32:18;;;;;;;;;;;;;;;;;;5077325;28;19928;-58
2022/12/09 12:35:09;;;;;;;;;;;;;;;;;;5077519;28;19932;-53
2022/12/09 12:37:41;;;;;;;;;;;;;;;;;;5075440;28;20619;-58
2022/12/09 12:40:09;;;;;;;;;;;;;;;;;;5075981;28;19931;-56
2022/12/09 12:48:57;;;;;;;;;;;;;;;;;;5080684;28;19973;-56
2022/12/09 12:51:29;;;;;;;;;;;;;;;;;;5061302;28;19967;-57
2022/12/09 12:54:14;;;;;;;;;;;;;;;;;;5081979;28;19958;-56
2022/12/09 12:56:50;;;;;;;;;;;;;;;;;;5070288;28;19928;-60
2022/12/09 12:59:18;;;;;;;;;;;;;;;;;;5071036;28;19932;-60
2022/12/09 13:01:51;;;;;;;;;;;;;;;;;;5077063;28;19939;-60
2022/12/09 13:04:25;;;;;;;;;;;;;;;;;;5077228;28;20434;-60
2022/12/09 13:06:59;;;;;;;;;;;;;;;;;;5074190;28;19924;-59
2022/12/09 13:09:30;;;;;;;;;;;;;;;;;;5076099;28;19982;-59
2022/12/09 13:12:02;;;;;;;;;;;;;;;;;;5077393;28;20408;-65
2022/12/09 13:14:50;;;;;;;;;;;;;;;;;;5073454;28;19970;-65
2022/12/09 13:17:15;;;;;;;;;;;;;;;;;;5080172;28;20716;-66
2022/12/09 13:19:47;;;;;;;;;;;;;;;;;;5076422;28;19932;-66
2022/12/09 13:22:17;;;;;;;;;;;;;;;;;;5076946;28;19932;-66
2022/12/09 13:24:47;;;;;;;;;;;;;;;;;;5078360;28;20294;-65
2022/12/09 13:27:27;;;;;;;;;;;;;;;;;;5080427;28;19924;-66
2022/12/09 13:30:05;;;;;;;;;;;;;;;;;;5079651;28;19924;-65
2022/12/09 13:32:30;;;;;;;;;;;;;;;;;;5076084;28;19928;-66
2022/12/09 13:35:14;;;;;;;;;;;;;;;;;;5077181;28;19989;-65
2022/12/09 13:37:43;;;;;;;;;;;;;;;;;;5075383;28;19983;-66
2022/12/09 13:40:23;;;;;;;;;;;;;;;;;;5076504;28;19932;-65
2022/12/09 13:43:09;;;;;;;;;;;;;;;;;;5076958;28;20034;-67
2022/12/09 13:45:54;;;;;;;;;;;;;;;;;;5079689;28;19931;-66
2022/12/09 13:48:20;;;;;;;;;;;;;;;;;;5075926;28;19924;-65
2022/12/09 13:50:48;;;;;;;;;;;;;;;;;;5074841;28;19927;-63
2022/12/09 13:53:19;;;;;;;;;;;;;;;;;;5077106;28;19947;-64
2022/12/09 13:55:55;;;;;;;;;;;;;;;;;;5075595;28;20409;-65
2022/12/09 13:58:39;;;;;;;;;;;;;;;;;;5078391;28;19978;-66
2022/12/09 14:01:12;;;;;;;;;;;;;;;;;;5083286;28;19939;-66
2022/12/09 14:03:56;;;;;;;;;;;;;;;;;;5075933;28;19928;-64
2022/12/09 14:06:40;;;;;;;;;;;;;;;;;;5074997;28;20306;-63
2022/12/09 14:09:18;;;;;;;;;;;;;;;;;;5075084;28;20301;-66
2022/12/09 14:11:46;;;;;;;;;;;;;;;;;;5075810;28;19932;-65
2022/12/09 14:14:23;;;;;;;;;;;;;;;;;;5081434;28;20645;-65
2022/12/09 14:16:59;;;;;;;;;;;;;;;;;;5078769;28;19928;-63
2022/12/09 14:19:24;;;;;;;;;;;;;;;;;;5076793;28;19982;-65
2022/12/09 14:22:15;;;;;;;;;;;;;;;;;;5078021;28;19924;-64
2022/12/09 14:24:41;;;;;;;;;;;;;;;;;;5076860;28;19932;-65
2022/12/09 14:27:06;;;;;;;;;;;;;;;;;;5078042;28;19931;-63
2022/12/09 14:29:41;;;;;;;;;;;;;;;;;;5071599;28;19932;-66
2022/12/09 14:32:27;;;;;;;;;;;;;;;;;;5080995;28;19998;-65
2022/12/09 14:34:59;;;;;;;;;;;;;;;;;;5067654;28;19939;-65
2022/12/09 14:37:40;;;;;;;;;;;;;;;;;;5075546;28;19931;-63
2022/12/09 14:40:18;;;;;;;;;;;;;;;;;;5077557;28;19939;-63
2022/12/09 14:42:50;;;;;;;;;;;;;;;;;;5071354;28;20287;-65
2022/12/09 14:45:27;;;;;;;;;;;;;;;;;;5069549;28;20004;-64
2022/12/09 14:47:53;;;;;;;;;;;;;;;;;;5073845;28;20351;-63
2022/12/09 14:50:20;;;;;;;;;;;;;;;;;;5074311;28;20062;-65
2022/12/09 14:52:54;;;;;;;;;;;;;;;;;;5074210;28;19931;-67
2022/12/09 14:55:22;;;;;;;;;;;;;;;;;;5074167;28;19928;-66
2022/12/09 14:57:48;;;;;;;;;;;;;;;;;;5073421;28;19932;-65
2022/12/09 15:00:25;;;;;;;;;;;;;;;;;;5072422;28;19928;-64
2022/12/09 15:02:51;;;;;;;;;;;;;;;;;;5075167;28;19920;-64
2022/12/09 15:05:17;;;;;;;;;;;;;;;;;;5075185;28;20404;-67
2022/12/09 15:07:43;;;;;;;;;;;;;;;;;;5072586;28;20401;-66
2022/12/09 15:10:14;;;;;;;;;;;;;;;;;;5077324;28;19983;-64
2022/12/09 15:12:41;;;;;;;;;;;;;;;;;;5070998;28;20396;-64
2022/12/09 15:15:06;;;;;;;;;;;;;;;;;;5071304;28;19924;-65
2022/12/09 15:17:35;;;;;;;;;;;;;;;;;;5082979;28;20490;-65
2022/12/09 15:20:03;;;;;;;;;;;;;;;;;;5075337;28;19943;-63
2022/12/09 15:22:30;;;;;;;;;;;;;;;;;;5076219;28;19932;-63
2022/12/09 15:24:55;;;;;;;;;;;;;;;;;;5072331;28;19932;-66
2022/12/09 15:27:22;;;;;;;;;;;;;;;;;;5077074;28;19976;-67
2022/12/09 15:29:48;;;;;;;;;;;;;;;;;;5069807;28;20219;-65
2022/12/09 15:32:21;;;;;;;;;;;;;;;;;;5076584;28;19972;-67
2022/12/09 15:34:46;;;;;;;;;;;;;;;;;;5077730;28;19955;-68
2022/12/09 15:37:12;;;;;;;;;;;;;;;;;;5076422;28;20363;-70
2022/12/09 15:39:40;;;;;;;;;;;;;;;;;;5070897;28;20353;-67
2022/12/09 15:42:10;;;;;;;;;;;;;;;;;;5074894;28;19928;-68
2022/12/09 15:44:42;;;;;;;;;;;;;;;;;;5083189;28;20380;-67
2022/12/09 15:47:13;;;;;;;;;;;;;;;;;;5081770;28;19932;-64
2022/12/09 15:49:43;;;;;;;;;;;;;;;;;;5079126;28;19968;-63
2022/12/09 15:52:10;;;;;;;;;;;;;;;;;;5073639;28;20373;-60
2022/12/09 15:54:37;;;;;;;;;;;;;;;;;;5075116;28;19957;-61
2022/12/09 15:57:04;;;;;;;;;;;;;;;;;;5081175;28;19928;-60
2022/12/09 15:59:37;;;;;;;;;;;;;;;;;;5080575;28;19960;-61
2022/12/09 16:02:03;;;;;;;;;;;;;;;;;;5074311;28;19975;-60
2022/12/09 16:04:31;;;;;;;;;;;;;;;;;;5081673;28;20059;-59
2022/12/09 16:07:03;;;;;;;;;;;;;;;;;;5079025;28;19936;-60
2022/12/09 16:09:29;;;;;;;;;;;;;;;;;;5075748;28;19977;-60
2022/12/09 16:11:54;;;;;;;;;;;;;;;;;;5072189;28;19924;-61
2022/12/09 16:14:21;;;;;;;;;;;;;;;;;;5063842;28;19973;-60
2022/12/09 16:16:47;;;;;;;;;;;;;;;;;;5065349;28;20392;-61
2022/12/09 16:19:33;;;;;;;;;;;;;;;;;;5078785;28;20309;-60
2022/12/09 16:22:15;;;;;;;;;;;;;;;;;;5080513;28;19924;-61
2022/12/09 16:24:59;;;;;;;;;;;;;;;;;;5075841;28;20015;-60
2022/12/09 16:27:27;;;;;;;;;;;;;;;;;;5077956;28;19931;-61
2022/12/09 16:29:54;;;;;;;;;;;;;;;;;;5074162;28;19928;-62
2022/12/09 16:32:30;;;;;;;;;;;;;;;;;;5093203;28;19924;-61
2022/12/09 16:34:57;;;;;;;;;;;;;;;;;;5078880;28;20270;-61
2022/12/09 16:37:34;;;;;;;;;;;;;;;;;;5075800;28;19940;-60
2022/12/09 16:39:59;;;;;;;;;;;;;;;;;;5072933;28;19928;-60
2022/12/09 16:42:28;;;;;;;;;;;;;;;;;;5071631;28;20244;-61
2022/12/09 16:45:13;;;;;;;;;;;;;;;;;;5075355;28;19928;-60
2022/12/09 16:47:42;;;;;;;;;;;;;;;;;;5072787;28;19956;-61
2022/12/09 16:50:10;;;;;;;;;;;;;;;;;;5073343;28;21849;-60
2022/12/09 16:52:37;;;;;;;;;;;;;;;;;;5071177;28;20366;-61
2022/12/09 16:55:05;;;;;;;;;;;;;;;;;;5073657;28;19932;-61
2022/12/09 16:57:30;;;;;;;;;;;;;;;;;;5076232;28;22186;-59
2022/12/09 16:59:55;;;;;;;;;;;;;;;;;;5075603;28;20715;-60
2022/12/09 17:02:27;;;;;;;;;;;;;;;;;;5074232;28;20069;-60
2022/12/09 17:04:52;;;;;;;;;;;;;;;;;;5075178;28;20419;-60